createdAt,value
2018-07-01T00:00:17.051Z,0.00
2018-07-01T00:01:17.017Z,0.00
2018-07-01T00:02:17.042Z,0.00
2018-07-01T00:03:17.072Z,0.10
2018-07-01T00:04:17.096Z,0.00
2018-07-01T00:05:17.123Z,0.00
2018-07-01T00:06:17.154Z,0.00
2018-07-01T00:07:17.174Z,0.00
2018-07-01T00:08:17.204Z,0.00
2018-07-01T00:09:17.229Z,0.00
2018-07-01T00:10:17.250Z,0.00
2018-07-01T00:11:17.284Z,0.00
2018-07-01T00:12:17.308Z,0.00
2018-07-01T00:13:17.339Z,0.00
2018-07-01T00:14:17.360Z,0.00
2018-07-01T00:15:17.384Z,0.00
2018-07-01T00:16:17.414Z,0.00
2018-07-01T00:17:17.438Z,0.00
2018-07-01T00:18:17.468Z,0.00
2018-07-01T00:19:17.491Z,0.00
2018-07-01T00:20:17.516Z,0.00
2018-07-01T00:21:17.544Z,0.00
2018-07-01T00:22:17.570Z,0.00
2018-07-01T00:23:17.591Z,0.10
2018-07-01T00:24:17.620Z,0.00
2018-07-01T00:25:17.647Z,0.00
2018-07-01T00:26:17.679Z,0.00
2018-07-01T00:27:17.705Z,0.00
2018-07-01T00:28:17.728Z,0.00
2018-07-01T00:29:17.753Z,0.00
2018-07-01T00:30:17.779Z,0.00
2018-07-01T00:31:17.808Z,0.00
2018-07-01T00:32:17.832Z,0.00
2018-07-01T00:33:17.856Z,0.00
2018-07-01T00:34:17.880Z,0.00
2018-07-01T00:35:17.911Z,0.00
2018-07-01T00:36:17.933Z,0.00
2018-07-01T00:37:17.965Z,0.00
2018-07-01T00:38:17.986Z,0.00
2018-07-01T00:39:18.021Z,0.00
2018-07-01T00:40:18.041Z,0.00
2018-07-01T00:41:18.065Z,0.00
2018-07-01T00:42:18.092Z,0.00
2018-07-01T00:43:18.114Z,0.00
2018-07-01T00:44:18.145Z,0.00
2018-07-01T00:45:18.170Z,0.00
2018-07-01T00:46:18.260Z,0.00
2018-07-01T00:47:18.225Z,0.00
2018-07-01T00:48:18.254Z,0.00
2018-07-01T00:49:18.276Z,0.00
2018-07-01T00:50:18.302Z,0.10
2018-07-01T00:51:18.330Z,0.00
2018-07-01T00:52:18.352Z,0.00
2018-07-01T00:53:18.382Z,0.00
2018-07-01T00:54:18.404Z,0.00
2018-07-01T00:55:18.429Z,0.00
2018-07-01T00:56:18.463Z,0.00
2018-07-01T00:57:18.487Z,0.10
2018-07-01T00:58:18.510Z,0.00
2018-07-01T00:59:18.536Z,0.00
2018-07-01T01:00:18.561Z,0.00
2018-07-01T01:01:18.586Z,0.00
2018-07-01T01:02:18.610Z,0.00
2018-07-01T01:03:18.635Z,0.10
2018-07-01T01:04:18.665Z,0.00
2018-07-01T01:05:18.689Z,0.10
2018-07-01T01:06:18.716Z,0.00
2018-07-01T01:07:18.737Z,0.00
2018-07-01T01:08:18.772Z,0.10
2018-07-01T01:09:18.796Z,0.00
2018-07-01T01:10:18.819Z,0.00
2018-07-01T01:11:18.852Z,0.00
2018-07-01T01:12:18.868Z,0.00
2018-07-01T01:13:18.895Z,0.00
2018-07-01T01:14:18.928Z,0.00
2018-07-01T01:15:18.949Z,0.10
2018-07-01T01:16:18.979Z,0.00
2018-07-01T01:17:19.002Z,0.00
2018-07-01T01:18:19.026Z,0.00
2018-07-01T01:19:19.048Z,0.00
2018-07-01T01:20:19.077Z,0.00
2018-07-01T01:21:19.105Z,0.00
2018-07-01T01:22:19.123Z,0.00
2018-07-01T01:23:19.157Z,0.00
2018-07-01T01:24:19.179Z,0.00
2018-07-01T01:25:19.203Z,0.00
2018-07-01T01:26:19.232Z,0.00
2018-07-01T01:27:19.256Z,0.00
2018-07-01T01:28:19.284Z,0.00
2018-07-01T01:29:19.314Z,0.00
2018-07-01T01:30:19.337Z,0.00
2018-07-01T01:31:19.365Z,0.00
2018-07-01T01:32:19.396Z,0.00
2018-07-01T01:33:19.417Z,0.00
2018-07-01T01:34:19.437Z,0.00
2018-07-01T01:35:19.463Z,0.00
2018-07-01T01:36:19.494Z,0.00
2018-07-01T01:37:19.516Z,0.00
2018-07-01T01:38:19.541Z,0.00
2018-07-01T01:39:19.570Z,0.00
2018-07-01T01:40:19.590Z,0.00
2018-07-01T01:41:19.617Z,0.00
2018-07-01T01:42:19.644Z,0.00
2018-07-01T01:43:19.670Z,0.00
2018-07-01T01:44:19.695Z,0.00
2018-07-01T01:45:19.723Z,0.00
2018-07-01T01:46:19.749Z,0.10
2018-07-01T01:47:19.777Z,0.00
2018-07-01T01:48:19.801Z,0.10
2018-07-01T01:49:19.825Z,0.00
2018-07-01T01:50:19.851Z,0.00
2018-07-01T01:51:19.875Z,0.00
2018-07-01T01:52:19.902Z,0.00
2018-07-01T01:53:19.927Z,0.00
2018-07-01T01:54:19.952Z,0.00
2018-07-01T01:55:19.981Z,0.00
2018-07-01T01:56:20.004Z,0.00
2018-07-01T01:57:20.024Z,0.00
2018-07-01T01:58:20.052Z,0.00
2018-07-01T01:59:20.080Z,0.00
2018-07-01T02:00:20.104Z,0.00
2018-07-01T02:01:20.130Z,0.00
2018-07-01T02:02:20.154Z,0.00
2018-07-01T02:03:20.185Z,0.10
2018-07-01T02:04:20.214Z,0.00
2018-07-01T02:05:20.231Z,0.00
2018-07-01T02:06:20.257Z,0.00
2018-07-01T02:07:20.281Z,0.00
2018-07-01T02:08:20.315Z,0.00
2018-07-01T02:09:20.337Z,0.00
2018-07-01T02:10:20.363Z,0.00
2018-07-01T02:11:20.384Z,0.00
2018-07-01T02:12:20.416Z,0.00
2018-07-01T02:13:20.436Z,0.00
2018-07-01T02:14:20.464Z,0.00
2018-07-01T02:15:20.487Z,0.00
2018-07-01T02:16:20.515Z,0.00
2018-07-01T02:17:20.542Z,0.00
2018-07-01T02:18:20.563Z,0.00
2018-07-01T02:19:20.591Z,0.10
2018-07-01T02:20:20.616Z,0.00
2018-07-01T02:21:20.644Z,0.00
2018-07-01T02:22:20.664Z,0.00
2018-07-01T02:23:20.701Z,0.10
2018-07-01T02:24:20.711Z,0.00
2018-07-01T02:25:20.742Z,0.10
2018-07-01T02:26:20.769Z,0.00
2018-07-01T02:27:20.792Z,0.00
2018-07-01T02:28:20.819Z,0.00
2018-07-01T02:29:20.840Z,0.00
2018-07-01T02:30:20.873Z,0.00
2018-07-01T02:31:20.894Z,0.00
2018-07-01T02:32:20.926Z,0.00
2018-07-01T02:33:20.947Z,0.00
2018-07-01T02:34:20.973Z,0.00
2018-07-01T02:35:21.040Z,0.00
2018-07-01T02:36:21.020Z,0.00
2018-07-01T02:37:21.039Z,0.00
2018-07-01T02:38:21.069Z,0.10
2018-07-01T02:39:21.092Z,0.00
2018-07-01T02:40:21.122Z,0.00
2018-07-01T02:41:21.142Z,0.00
2018-07-01T02:42:21.173Z,0.00
2018-07-01T02:43:21.197Z,0.00
2018-07-01T02:44:21.221Z,0.00
2018-07-01T02:45:21.245Z,0.00
2018-07-01T02:46:21.274Z,0.00
2018-07-01T02:47:21.295Z,0.00
2018-07-01T02:48:21.337Z,0.00
2018-07-01T02:49:21.347Z,0.00
2018-07-01T02:50:21.375Z,0.00
2018-07-01T02:51:21.397Z,0.00
2018-07-01T02:52:21.423Z,0.00
2018-07-01T02:53:21.447Z,0.00
2018-07-01T02:54:21.469Z,0.00
2018-07-01T02:55:21.498Z,0.00
2018-07-01T02:56:21.521Z,0.00
2018-07-01T02:57:21.553Z,0.00
2018-07-01T02:58:21.575Z,0.00
2018-07-01T02:59:21.599Z,0.00
2018-07-01T03:00:21.625Z,0.00
2018-07-01T03:01:21.645Z,0.00
2018-07-01T03:02:21.671Z,0.00
2018-07-01T03:03:21.693Z,0.00
2018-07-01T03:04:21.719Z,0.00
2018-07-01T03:05:21.751Z,0.00
2018-07-01T03:06:21.773Z,0.00
2018-07-01T03:07:21.795Z,0.00
2018-07-01T03:08:21.820Z,0.00
2018-07-01T03:09:21.845Z,0.00
2018-07-01T03:10:21.881Z,0.00
2018-07-01T03:11:21.895Z,0.00
2018-07-01T03:12:21.923Z,0.00
2018-07-01T03:13:21.948Z,0.00
2018-07-01T03:14:21.969Z,0.00
2018-07-01T03:15:21.994Z,0.00
2018-07-01T03:16:22.019Z,0.00
2018-07-01T03:17:22.046Z,0.00
2018-07-01T03:18:22.071Z,0.00
2018-07-01T03:19:22.092Z,0.00
2018-07-01T03:20:22.120Z,0.00
2018-07-01T03:21:22.143Z,0.00
2018-07-01T03:22:22.171Z,0.00
2018-07-01T03:23:22.196Z,0.10
2018-07-01T03:24:22.217Z,0.10
2018-07-01T03:25:22.249Z,0.00
2018-07-01T03:26:22.272Z,0.00
2018-07-01T03:27:22.295Z,0.10
2018-07-01T03:28:22.321Z,0.00
2018-07-01T03:29:22.345Z,0.00
2018-07-01T03:30:22.369Z,0.00
2018-07-01T03:31:22.396Z,0.10
2018-07-01T03:32:22.421Z,0.00
2018-07-01T03:33:22.443Z,0.00
2018-07-01T03:34:22.470Z,0.10
2018-07-01T03:35:22.493Z,0.00
2018-07-01T03:36:22.517Z,0.00
2018-07-01T03:37:22.544Z,0.00
2018-07-01T03:38:22.568Z,0.00
2018-07-01T03:39:22.593Z,0.00
2018-07-01T03:40:22.621Z,0.00
2018-07-01T03:41:22.647Z,0.00
2018-07-01T03:42:22.670Z,0.00
2018-07-01T03:43:22.701Z,0.00
2018-07-01T03:44:22.717Z,0.00
2018-07-01T03:45:22.750Z,0.00
2018-07-01T03:46:22.774Z,0.00
2018-07-01T03:47:22.801Z,0.00
2018-07-01T03:48:22.817Z,0.00
2018-07-01T03:49:22.847Z,0.10
2018-07-01T03:50:22.871Z,0.00
2018-07-01T03:51:22.903Z,0.00
2018-07-01T03:52:22.924Z,0.00
2018-07-01T03:53:22.951Z,0.00
2018-07-01T03:54:22.971Z,0.00
2018-07-01T03:55:23.001Z,0.00
2018-07-01T03:56:23.026Z,0.00
2018-07-01T03:57:23.045Z,0.10
2018-07-01T03:58:23.076Z,0.00
2018-07-01T03:59:23.095Z,0.00
2018-07-01T04:00:23.129Z,0.00
2018-07-01T04:01:23.153Z,0.00
2018-07-01T04:02:23.187Z,0.00
2018-07-01T04:03:23.199Z,0.10
2018-07-01T04:04:23.220Z,0.00
2018-07-01T04:05:23.247Z,0.00
2018-07-01T04:06:23.277Z,0.10
2018-07-01T04:07:23.303Z,0.00
2018-07-01T04:08:23.326Z,0.00
2018-07-01T04:09:23.347Z,0.00
2018-07-01T04:10:23.374Z,0.00
2018-07-01T04:11:23.396Z,0.00
2018-07-01T04:12:23.424Z,0.00
2018-07-01T04:13:23.447Z,0.00
2018-07-01T04:14:23.474Z,0.10
2018-07-01T04:15:23.501Z,0.10
2018-07-01T04:16:23.529Z,0.10
2018-07-01T04:17:23.546Z,0.00
2018-07-01T04:18:23.574Z,0.00
2018-07-01T04:19:23.599Z,0.00
2018-07-01T04:20:23.623Z,0.10
2018-07-01T04:21:23.650Z,0.10
2018-07-01T04:22:23.676Z,0.00
2018-07-01T04:23:23.703Z,0.00
2018-07-01T04:24:23.729Z,0.00
2018-07-01T04:25:23.751Z,0.10
2018-07-01T04:26:23.769Z,0.10
2018-07-01T04:27:23.802Z,0.10
2018-07-01T04:28:23.827Z,0.10
2018-07-01T04:29:23.847Z,0.00
2018-07-01T04:30:23.871Z,0.00
2018-07-01T04:31:23.897Z,0.10
2018-07-01T04:32:23.927Z,0.10
2018-07-01T04:33:23.948Z,0.10
2018-07-01T04:34:23.976Z,0.00
2018-07-01T04:35:23.997Z,0.10
2018-07-01T04:36:24.023Z,0.00
2018-07-01T04:37:24.051Z,0.00
2018-07-01T04:38:24.072Z,0.00
2018-07-01T04:39:24.109Z,0.10
2018-07-01T04:40:24.127Z,0.00
2018-07-01T04:41:24.152Z,0.00
2018-07-01T04:42:24.175Z,0.10
2018-07-01T04:43:24.196Z,0.10
2018-07-01T04:44:24.221Z,0.10
2018-07-01T04:45:24.247Z,0.00
2018-07-01T04:46:24.278Z,0.00
2018-07-01T04:47:24.297Z,0.10
2018-07-01T04:48:24.331Z,0.10
2018-07-01T04:49:24.353Z,0.00
2018-07-01T04:50:24.380Z,0.00
2018-07-01T04:51:24.399Z,0.00
2018-07-01T04:52:24.428Z,0.00
2018-07-01T04:53:24.445Z,0.00
2018-07-01T04:54:24.479Z,0.10
2018-07-01T04:55:24.739Z,0.00
2018-07-01T04:56:24.523Z,0.00
2018-07-01T04:57:24.579Z,0.00
2018-07-01T04:58:24.581Z,0.00
2018-07-01T04:59:24.605Z,0.10
2018-07-01T05:00:24.627Z,0.00
2018-07-01T05:01:24.649Z,0.10
2018-07-01T05:02:24.740Z,0.00
2018-07-01T05:03:24.700Z,0.00
2018-07-01T05:04:24.723Z,0.00
2018-07-01T05:05:24.751Z,0.10
2018-07-01T05:06:24.776Z,0.00
2018-07-01T05:07:24.801Z,0.00
2018-07-01T05:08:24.825Z,0.10
2018-07-01T05:09:24.860Z,0.00
2018-07-01T05:10:24.875Z,0.10
2018-07-01T05:11:24.907Z,0.00
2018-07-01T05:12:24.938Z,0.10
2018-07-01T05:13:24.955Z,0.10
2018-07-01T05:14:24.981Z,0.10
2018-07-01T05:15:25.003Z,0.00
2018-07-01T05:16:25.025Z,0.00
2018-07-01T05:17:25.059Z,0.00
2018-07-01T05:18:25.075Z,0.00
2018-07-01T05:19:25.109Z,0.00
2018-07-01T05:20:25.127Z,0.10
2018-07-01T05:21:25.153Z,0.10
2018-07-01T05:22:25.179Z,0.10
2018-07-01T05:23:25.207Z,0.10
2018-07-01T05:24:25.241Z,0.00
2018-07-01T05:25:25.259Z,0.00
2018-07-01T05:26:25.280Z,0.10
2018-07-01T05:27:25.310Z,0.10
2018-07-01T05:28:25.334Z,0.00
2018-07-01T05:29:25.356Z,0.00
2018-07-01T05:30:25.378Z,0.10
2018-07-01T05:31:25.413Z,0.10
2018-07-01T05:32:25.431Z,0.00
2018-07-01T05:33:25.459Z,0.00
2018-07-01T05:34:25.512Z,0.00
2018-07-01T05:35:25.507Z,0.00
2018-07-01T05:36:25.527Z,0.00
2018-07-01T05:37:25.556Z,0.00
2018-07-01T05:38:25.582Z,0.00
2018-07-01T05:39:25.604Z,0.10
2018-07-01T05:40:25.635Z,0.00
2018-07-01T05:41:25.655Z,0.00
2018-07-01T05:42:25.686Z,0.10
2018-07-01T05:43:25.710Z,0.00
2018-07-01T05:44:25.735Z,0.00
2018-07-01T05:45:25.753Z,0.00
2018-07-01T05:46:25.796Z,0.00
2018-07-01T05:47:25.805Z,0.00
2018-07-01T05:48:25.833Z,0.00
2018-07-01T05:49:25.886Z,0.00
2018-07-01T05:50:25.888Z,0.00
2018-07-01T05:51:25.907Z,0.00
2018-07-01T05:52:25.936Z,0.00
2018-07-01T05:53:25.957Z,0.00
2018-07-01T05:54:25.986Z,0.00
2018-07-01T05:55:26.006Z,0.00
2018-07-01T05:56:26.032Z,0.00
2018-07-01T05:57:26.059Z,0.00
2018-07-01T05:58:26.082Z,0.00
2018-07-01T05:59:26.112Z,0.00
2018-07-01T06:00:26.132Z,0.10
2018-07-01T06:01:26.159Z,0.00
2018-07-01T06:02:26.183Z,0.00
2018-07-01T06:03:26.217Z,0.00
2018-07-01T06:04:26.234Z,0.00
2018-07-01T06:05:26.261Z,0.00
2018-07-01T06:06:26.285Z,0.00
2018-07-01T06:07:26.308Z,0.00
2018-07-01T06:08:26.342Z,0.00
2018-07-01T06:09:26.365Z,0.00
2018-07-01T06:10:26.393Z,0.00
2018-07-01T06:11:26.411Z,0.10
2018-07-01T06:12:26.437Z,0.10
2018-07-01T06:13:26.468Z,0.10
2018-07-01T06:14:26.483Z,0.00
2018-07-01T06:15:26.511Z,0.00
2018-07-01T06:16:26.607Z,0.00
2018-07-01T06:17:26.563Z,0.00
2018-07-01T06:18:26.591Z,0.00
2018-07-01T06:19:26.613Z,0.00
2018-07-01T06:20:26.642Z,0.00
2018-07-01T06:21:26.663Z,0.00
2018-07-01T06:22:26.691Z,0.10
2018-07-01T06:23:26.715Z,0.00
2018-07-01T06:24:26.749Z,0.00
2018-07-01T06:25:26.771Z,0.00
2018-07-01T06:26:26.801Z,0.00
2018-07-01T06:27:26.819Z,0.10
2018-07-01T06:28:26.843Z,0.00
2018-07-01T06:29:26.867Z,0.00
2018-07-01T06:30:26.901Z,0.10
2018-07-01T06:31:26.917Z,0.00
2018-07-01T06:32:26.941Z,0.00
2018-07-01T06:33:26.977Z,0.00
2018-07-01T06:34:27.004Z,0.00
2018-07-01T06:35:27.027Z,0.00
2018-07-01T06:36:27.053Z,0.00
2018-07-01T06:37:27.075Z,0.00
2018-07-01T06:38:27.097Z,0.00
2018-07-01T06:39:27.123Z,0.00
2018-07-01T06:40:27.151Z,0.10
2018-07-01T06:41:27.173Z,0.00
2018-07-01T06:42:27.201Z,0.00
2018-07-01T06:43:27.223Z,0.10
2018-07-01T06:44:27.247Z,0.10
2018-07-01T06:45:27.271Z,0.00
2018-07-01T06:46:27.301Z,0.10
2018-07-01T06:47:27.327Z,0.00
2018-07-01T06:48:27.353Z,0.10
2018-07-01T06:49:27.388Z,0.10
2018-07-01T06:50:27.403Z,0.10
2018-07-01T06:51:27.425Z,0.10
2018-07-01T06:52:27.457Z,0.10
2018-07-01T06:53:27.475Z,0.10
2018-07-01T06:54:27.501Z,0.10
2018-07-01T06:55:27.534Z,0.00
2018-07-01T06:56:27.608Z,0.10
2018-07-01T06:57:27.583Z,0.10
2018-07-01T06:58:27.613Z,0.00
2018-07-01T06:59:27.643Z,0.10
2018-07-01T07:00:27.657Z,0.00
2018-07-01T07:01:27.679Z,0.00
2018-07-01T07:02:27.721Z,0.00
2018-07-01T07:03:27.732Z,0.00
2018-07-01T07:04:27.758Z,0.10
2018-07-01T07:05:27.785Z,0.10
2018-07-01T07:06:27.809Z,0.10
2018-07-01T07:07:27.834Z,0.00
2018-07-01T07:08:27.859Z,0.00
2018-07-01T07:09:27.894Z,0.00
2018-07-01T07:10:27.912Z,0.00
2018-07-01T07:11:27.943Z,0.10
2018-07-01T07:12:27.964Z,0.10
2018-07-01T07:13:27.996Z,0.00
2018-07-01T07:14:28.011Z,0.00
2018-07-01T07:15:28.040Z,0.00
2018-07-01T07:16:28.061Z,0.00
2018-07-01T07:17:28.093Z,0.00
2018-07-01T07:18:28.115Z,0.10
2018-07-01T07:19:28.139Z,0.10
2018-07-01T07:20:28.162Z,0.00
2018-07-01T07:21:28.195Z,0.10
2018-07-01T07:22:28.220Z,0.00
2018-07-01T07:23:28.242Z,0.00
2018-07-01T07:24:28.310Z,0.00
2018-07-01T07:25:28.296Z,0.10
2018-07-01T07:26:28.313Z,0.10
2018-07-01T07:27:28.349Z,0.00
2018-07-01T07:28:28.369Z,0.10
2018-07-01T07:29:28.394Z,0.00
2018-07-01T07:30:28.420Z,0.10
2018-07-01T07:31:28.449Z,0.00
2018-07-01T07:32:28.472Z,0.00
2018-07-01T07:33:28.496Z,0.00
2018-07-01T07:34:28.528Z,0.10
2018-07-01T07:35:28.557Z,0.00
2018-07-01T07:36:28.569Z,0.00
2018-07-01T07:37:28.602Z,0.00
2018-07-01T07:38:28.624Z,0.00
2018-07-01T07:39:28.655Z,0.00
2018-07-01T07:40:28.674Z,0.10
2018-07-01T07:41:28.704Z,0.00
2018-07-01T07:42:28.729Z,0.00
2018-07-01T07:43:28.756Z,0.00
2018-07-01T07:44:28.779Z,0.00
2018-07-01T07:45:28.807Z,0.00
2018-07-01T07:46:28.833Z,0.10
2018-07-01T07:47:28.854Z,0.00
2018-07-01T07:48:28.879Z,0.00
2018-07-01T07:49:28.911Z,0.00
2018-07-01T07:50:28.937Z,0.00
2018-07-01T07:51:28.958Z,0.00
2018-07-01T07:52:28.995Z,0.00
2018-07-01T07:53:29.012Z,0.00
2018-07-01T07:54:29.038Z,0.00
2018-07-01T07:55:29.062Z,0.00
2018-07-01T07:56:29.087Z,0.10
2018-07-01T07:57:29.116Z,0.00
2018-07-01T07:58:29.142Z,0.10
2018-07-01T07:59:29.167Z,0.00
2018-07-01T08:00:29.199Z,0.10
2018-07-01T08:01:29.228Z,0.00
2018-07-01T08:02:29.241Z,0.10
2018-07-01T08:03:29.273Z,0.00
2018-07-01T08:04:29.306Z,0.00
2018-07-01T08:05:29.324Z,0.10
2018-07-01T08:06:29.347Z,0.10
2018-07-01T08:07:29.389Z,0.10
2018-07-01T08:08:29.400Z,0.00
2018-07-01T08:09:29.428Z,0.00
2018-07-01T08:10:29.458Z,0.00
2018-07-01T08:11:29.479Z,0.00
2018-07-01T08:12:29.504Z,0.00
2018-07-01T08:13:29.531Z,0.10
2018-07-01T08:14:29.563Z,0.00
2018-07-01T08:15:29.584Z,0.00
2018-07-01T08:16:29.614Z,0.00
2018-07-01T08:17:29.636Z,0.00
2018-07-01T08:18:29.662Z,0.00
2018-07-01T08:19:29.686Z,0.00
2018-07-01T08:20:29.716Z,0.00
2018-07-01T08:21:29.737Z,0.00
2018-07-01T08:22:29.763Z,0.00
2018-07-01T08:23:29.788Z,0.00
2018-07-01T08:24:29.817Z,0.00
2018-07-01T08:25:29.844Z,0.00
2018-07-01T08:26:29.871Z,0.00
2018-07-01T08:27:29.903Z,0.00
2018-07-01T08:28:29.924Z,0.00
2018-07-01T08:29:29.947Z,0.00
2018-07-01T08:30:29.973Z,0.10
2018-07-01T08:31:29.999Z,0.00
2018-07-01T08:32:30.028Z,0.10
2018-07-01T08:33:30.052Z,0.00
2018-07-01T08:34:30.131Z,0.00
2018-07-01T08:35:30.102Z,0.00
2018-07-01T08:36:30.128Z,0.10
2018-07-01T08:37:30.152Z,0.00
2018-07-01T08:38:30.186Z,0.00
2018-07-01T08:39:30.208Z,0.00
2018-07-01T08:40:30.231Z,0.10
2018-07-01T08:41:30.261Z,0.00
2018-07-01T08:42:30.289Z,0.10
2018-07-01T08:43:30.311Z,0.10
2018-07-01T08:44:30.337Z,0.00
2018-07-01T08:45:30.368Z,0.00
2018-07-01T08:46:30.387Z,0.10
2018-07-01T08:47:30.409Z,0.00
2018-07-01T08:48:30.442Z,0.00
2018-07-01T08:49:30.470Z,0.10
2018-07-01T08:50:30.493Z,0.00
2018-07-01T08:51:30.518Z,0.10
2018-07-01T08:52:30.641Z,0.00
2018-07-01T08:53:30.570Z,0.10
2018-07-01T08:54:30.598Z,0.00
2018-07-01T08:55:30.624Z,0.10
2018-07-01T08:56:30.647Z,0.00
2018-07-01T08:57:30.679Z,0.00
2018-07-01T08:58:30.705Z,0.00
2018-07-01T08:59:30.726Z,0.00
2018-07-01T09:00:30.754Z,0.00
2018-07-01T09:01:30.779Z,0.00
2018-07-01T09:02:30.806Z,0.00
2018-07-01T09:03:30.830Z,0.10
2018-07-01T09:04:30.854Z,0.00
2018-07-01T09:05:30.893Z,0.00
2018-07-01T09:06:30.907Z,0.00
2018-07-01T09:07:30.937Z,0.00
2018-07-01T09:08:31.046Z,0.00
2018-07-01T09:09:30.986Z,0.00
2018-07-01T09:10:31.016Z,0.00
2018-07-01T09:11:31.046Z,0.00
2018-07-01T09:12:31.064Z,0.00
2018-07-01T09:13:31.092Z,0.10
2018-07-01T09:14:31.121Z,0.10
2018-07-01T09:15:31.154Z,0.00
2018-07-01T09:16:31.175Z,0.00
2018-07-01T09:17:31.210Z,0.00
2018-07-01T09:18:31.224Z,0.00
2018-07-01T09:19:31.252Z,0.00
2018-07-01T09:20:31.277Z,0.00
2018-07-01T09:21:31.307Z,0.00
2018-07-01T09:22:31.331Z,0.00
2018-07-01T09:23:31.367Z,0.00
2018-07-01T09:24:31.386Z,0.00
2018-07-01T09:25:31.405Z,0.00
2018-07-01T09:26:31.441Z,0.00
2018-07-01T09:27:31.465Z,0.10
2018-07-01T09:28:31.487Z,0.00
2018-07-01T09:29:31.514Z,0.00
2018-07-01T09:30:31.539Z,0.00
2018-07-01T09:31:31.568Z,0.00
2018-07-01T09:32:31.596Z,0.00
2018-07-01T09:33:31.614Z,0.00
2018-07-01T09:34:31.679Z,0.00
2018-07-01T09:35:31.676Z,0.00
2018-07-01T09:36:31.708Z,0.00
2018-07-01T09:37:31.723Z,0.00
2018-07-01T09:38:31.751Z,0.00
2018-07-01T09:39:31.774Z,0.00
2018-07-01T09:40:31.813Z,0.00
2018-07-01T09:41:31.829Z,0.00
2018-07-01T09:42:31.857Z,0.00
2018-07-01T09:43:31.886Z,0.00
2018-07-01T09:44:31.911Z,0.00
2018-07-01T09:45:31.937Z,0.00
2018-07-01T09:46:31.964Z,0.00
2018-07-01T09:47:31.986Z,0.00
2018-07-01T09:48:32.027Z,0.10
2018-07-01T09:49:32.043Z,0.00
2018-07-01T09:50:32.069Z,0.00
2018-07-01T09:51:32.101Z,0.00
2018-07-01T09:52:32.123Z,0.00
2018-07-01T09:53:32.145Z,0.00
2018-07-01T09:54:32.175Z,0.00
2018-07-01T09:55:32.201Z,0.00
2018-07-01T09:56:32.232Z,0.10
2018-07-01T09:57:32.253Z,0.00
2018-07-01T09:58:32.299Z,0.10
2018-07-01T09:59:32.305Z,0.00
2018-07-01T10:00:32.339Z,0.00
2018-07-01T10:01:32.361Z,0.00
2018-07-01T10:02:32.385Z,0.00
2018-07-01T10:03:32.415Z,0.00
2018-07-01T10:04:32.437Z,0.00
2018-07-01T10:05:32.466Z,0.00
2018-07-01T10:06:32.491Z,0.00
2018-07-01T10:07:32.523Z,0.00
2018-07-01T10:08:32.547Z,0.00
2018-07-01T10:09:32.571Z,0.00
2018-07-01T10:10:32.598Z,0.00
2018-07-01T10:11:32.625Z,0.00
2018-07-01T10:12:32.658Z,0.00
2018-07-01T10:13:32.685Z,0.00
2018-07-01T10:14:32.707Z,0.00
2018-07-01T10:15:32.730Z,0.10
2018-07-01T10:16:32.762Z,0.00
2018-07-01T10:17:32.791Z,0.00
2018-07-01T10:18:32.808Z,0.00
2018-07-01T10:19:32.835Z,0.00
2018-07-01T10:20:32.863Z,0.10
2018-07-01T10:21:32.890Z,0.00
2018-07-01T10:22:32.915Z,0.00
2018-07-01T10:23:32.947Z,0.00
2018-07-01T10:24:32.975Z,0.00
2018-07-01T10:25:32.993Z,0.00
2018-07-01T10:26:33.047Z,0.00
2018-07-01T10:27:33.049Z,0.00
2018-07-01T10:28:33.082Z,0.10
2018-07-01T10:29:33.115Z,0.00
2018-07-01T10:30:33.141Z,0.00
2018-07-01T10:31:33.155Z,0.00
2018-07-01T10:32:33.253Z,0.00
2018-07-01T10:33:33.211Z,0.00
2018-07-01T10:34:33.236Z,0.00
2018-07-01T10:35:33.267Z,0.00
2018-07-01T10:36:33.292Z,0.00
2018-07-01T10:37:33.317Z,0.00
2018-07-01T10:38:33.346Z,0.00
2018-07-01T10:39:33.376Z,0.00
2018-07-01T10:40:33.404Z,0.00
2018-07-01T10:41:33.423Z,0.00
2018-07-01T10:42:33.458Z,0.00
2018-07-01T10:43:33.477Z,0.00
2018-07-01T10:44:33.511Z,0.00
2018-07-01T10:45:33.534Z,0.00
2018-07-01T10:46:33.558Z,0.10
2018-07-01T10:47:33.593Z,0.00
2018-07-01T10:48:33.614Z,0.00
2018-07-01T10:49:33.646Z,0.00
2018-07-01T10:50:33.668Z,0.00
2018-07-01T10:51:33.737Z,0.00
2018-07-01T10:52:33.723Z,0.00
2018-07-01T10:53:33.747Z,0.00
2018-07-01T10:54:33.775Z,0.00
2018-07-01T10:55:33.803Z,0.00
2018-07-01T10:56:33.833Z,0.00
2018-07-01T10:57:33.892Z,0.00
2018-07-01T10:58:33.883Z,0.00
2018-07-01T10:59:33.915Z,0.00
2018-07-01T11:00:33.940Z,0.00
2018-07-01T11:01:33.973Z,0.00
2018-07-01T11:02:33.992Z,0.00
2018-07-01T11:03:34.019Z,0.00
2018-07-01T11:04:34.049Z,0.00
2018-07-01T11:05:34.074Z,0.00
2018-07-01T11:06:34.102Z,0.00
2018-07-01T11:07:34.141Z,0.10
2018-07-01T11:08:34.162Z,0.10
2018-07-01T11:09:34.182Z,0.10
2018-07-01T11:11:34.242Z,0.10
2018-07-01T11:12:34.274Z,0.10
2018-07-01T11:13:34.303Z,0.10
2018-07-01T11:14:34.328Z,0.10
2018-07-01T11:15:34.361Z,0.10
2018-07-01T11:16:34.388Z,0.10
2018-07-01T11:17:34.417Z,0.10
2018-07-01T11:18:34.455Z,0.10
2018-07-01T11:19:34.482Z,0.10
2018-07-01T11:20:34.514Z,0.10
2018-07-01T11:21:34.551Z,0.10
2018-07-01T11:22:34.572Z,0.20
2018-07-01T11:23:34.606Z,0.20
2018-07-01T11:24:34.635Z,0.20
2018-07-01T11:25:34.668Z,0.20
2018-07-01T11:26:34.757Z,0.20
2018-07-01T11:27:34.881Z,0.20
2018-07-01T11:28:34.785Z,0.20
2018-07-01T11:29:34.803Z,0.20
2018-07-01T11:30:34.836Z,0.20
2018-07-01T11:31:34.870Z,0.30
2018-07-01T11:32:34.916Z,0.30
2018-07-01T11:33:34.944Z,0.30
2018-07-01T11:34:34.977Z,0.30
2018-07-01T11:36:35.049Z,0.40
2018-07-01T11:37:35.078Z,0.50
2018-07-01T11:39:35.149Z,0.50
2018-07-01T11:40:35.189Z,0.50
2018-07-01T11:41:35.224Z,0.60
2018-07-01T11:42:35.309Z,0.50
2018-07-01T11:43:35.302Z,0.60
2018-07-01T11:44:35.384Z,0.60
2018-07-01T11:45:35.369Z,0.60
2018-07-01T11:46:35.404Z,0.60
2018-07-01T11:47:35.452Z,0.60
2018-07-01T11:48:35.483Z,0.70
2018-07-01T11:49:35.516Z,0.60
2018-07-01T11:50:35.558Z,0.70
2018-07-01T11:51:35.590Z,0.70
2018-07-01T11:52:35.631Z,0.70
2018-07-01T11:53:35.665Z,0.70
2018-07-01T11:54:35.702Z,0.70
2018-07-01T11:55:35.751Z,0.80
2018-07-01T11:56:35.782Z,0.80
2018-07-01T11:57:35.815Z,0.80
2018-07-01T11:58:35.853Z,0.80
2018-07-01T11:59:35.888Z,0.80
2018-07-01T12:00:35.931Z,0.80
2018-07-01T12:01:35.964Z,0.80
2018-07-01T12:02:36.008Z,0.80
2018-07-01T12:03:36.044Z,0.80
2018-07-01T12:04:36.082Z,0.80
2018-07-01T12:05:36.162Z,0.80
2018-07-01T12:06:36.159Z,0.80
2018-07-01T12:07:36.203Z,0.90
2018-07-01T12:08:36.230Z,0.80
2018-07-01T12:09:36.269Z,0.80
2018-07-01T12:10:36.316Z,0.90
2018-07-01T12:11:36.354Z,0.80
2018-07-01T12:12:36.391Z,0.90
2018-07-01T12:13:36.424Z,0.80
2018-07-01T12:14:36.464Z,0.80
2018-07-01T12:15:36.504Z,0.80
2018-07-01T12:16:36.537Z,0.90
2018-07-01T12:17:36.584Z,0.80
2018-07-01T12:18:36.614Z,0.90
2018-07-01T12:19:36.664Z,0.90
2018-07-01T12:20:36.717Z,0.90
2018-07-01T12:21:36.739Z,0.90
2018-07-01T12:22:36.772Z,0.90
2018-07-01T12:23:36.839Z,0.90
2018-07-01T12:24:36.856Z,1.00
2018-07-01T12:25:36.892Z,1.00
2018-07-01T12:26:36.929Z,1.00
2018-07-01T12:27:36.972Z,1.00
2018-07-01T12:28:37.010Z,1.00
2018-07-01T12:29:37.042Z,1.00
2018-07-01T12:30:37.090Z,1.00
2018-07-01T12:31:37.126Z,1.10
2018-07-01T12:32:37.164Z,1.10
2018-07-01T12:33:37.204Z,1.10
2018-07-01T12:34:37.289Z,1.10
2018-07-01T12:35:37.287Z,1.20
2018-07-01T12:36:37.324Z,1.10
2018-07-01T12:37:37.364Z,1.10
2018-07-01T12:38:37.413Z,1.20
2018-07-01T12:39:37.441Z,1.20
2018-07-01T12:40:37.477Z,1.20
2018-07-01T12:41:37.522Z,1.20
2018-07-01T12:42:37.561Z,1.10
2018-07-01T12:43:37.599Z,1.00
2018-07-01T12:44:37.639Z,1.00
2018-07-01T12:45:37.676Z,0.90
2018-07-01T12:46:37.713Z,1.00
2018-07-01T12:47:37.764Z,1.00
2018-07-01T12:48:37.801Z,1.00
2018-07-01T12:49:37.833Z,1.10
2018-07-01T12:50:37.879Z,1.10
2018-07-01T12:51:37.912Z,1.10
2018-07-01T12:52:37.954Z,1.20
2018-07-01T12:53:37.995Z,1.10
2018-07-01T12:54:38.038Z,1.20
2018-07-01T12:55:38.075Z,1.20
2018-07-01T12:56:38.187Z,1.20
2018-07-01T12:57:38.146Z,1.00
2018-07-01T12:58:38.195Z,0.80
2018-07-01T12:59:38.228Z,0.80
2018-07-01T13:00:38.269Z,0.70
2018-07-01T13:01:38.306Z,0.70
2018-07-01T13:02:38.343Z,0.80
2018-07-01T13:03:38.386Z,0.80
2018-07-01T13:04:38.436Z,0.80
2018-07-01T13:05:38.462Z,0.80
2018-07-01T13:06:38.496Z,0.90
2018-07-01T13:07:38.538Z,0.90
2018-07-01T13:08:38.715Z,0.90
2018-07-01T13:09:38.616Z,1.00
2018-07-01T13:10:38.658Z,1.00
2018-07-01T13:11:38.692Z,1.00
2018-07-01T13:12:38.732Z,1.00
2018-07-01T13:13:38.772Z,1.10
2018-07-01T13:14:38.818Z,1.10
2018-07-01T13:15:38.852Z,1.20
2018-07-01T13:16:38.886Z,1.20
2018-07-01T13:17:38.932Z,1.30
2018-07-01T13:18:38.975Z,1.30
2018-07-01T13:19:39.013Z,1.40
2018-07-01T13:20:39.067Z,1.40
2018-07-01T13:21:39.097Z,1.40